createdAt,value
2023-05-04T00:02:23.385Z,11.45
2023-05-04T00:04:54.068Z,11.40
2023-05-04T00:07:21.503Z,11.37
2023-05-04T00:09:50.681Z,11.34
2023-05-04T00:12:18.550Z,11.31
2023-05-04T00:14:45.505Z,11.26
2023-05-04T00:17:12.694Z,11.21
2023-05-04T00:19:42.024Z,11.18
2023-05-04T00:22:09.184Z,11.14
2023-05-04T00:24:36.206Z,11.10
2023-05-04T00:27:04.287Z,11.06
2023-05-04T00:29:32.038Z,11.03
2023-05-04T00:31:59.118Z,10.98
2023-05-04T00:34:26.238Z,10.97
2023-05-04T00:36:53.282Z,10.95
2023-05-04T00:39:20.427Z,10.94
2023-05-04T00:41:47.594Z,10.92
2023-05-04T00:44:14.575Z,10.89
2023-05-04T00:46:41.850Z,10.87
2023-05-04T00:49:09.899Z,10.86
2023-05-04T00:51:37.938Z,10.85
2023-05-04T00:54:05.402Z,10.84
2023-05-04T00:56:33.913Z,10.83
2023-05-04T00:59:00.926Z,10.82
2023-05-04T01:01:28.133Z,10.82
2023-05-04T01:03:56.434Z,10.82
2023-05-04T01:06:34.728Z,10.82
2023-05-04T01:09:35.401Z,10.78
2023-05-04T01:12:27.551Z,10.72
2023-05-04T01:14:56.487Z,10.68
2023-05-04T01:17:23.462Z,10.68
2023-05-04T01:19:53.768Z,10.64
2023-05-04T01:22:23.948Z,10.62
2023-05-04T01:24:53.433Z,10.60
2023-05-04T01:27:36.196Z,10.58
2023-05-04T01:30:18.931Z,10.56
2023-05-04T01:32:47.087Z,10.54
2023-05-04T01:35:14.388Z,10.55
2023-05-04T01:37:41.907Z,10.55
2023-05-04T01:40:09.829Z,10.55
2023-05-04T01:42:36.877Z,10.54
2023-05-04T01:45:05.674Z,10.54
2023-05-04T01:47:32.758Z,10.51
2023-05-04T01:49:59.737Z,10.51
2023-05-04T01:52:26.755Z,10.51
2023-05-04T01:54:53.754Z,10.54
2023-05-04T01:57:20.788Z,10.53
2023-05-04T01:59:47.734Z,10.54
2023-05-04T02:02:14.712Z,10.54
2023-05-04T02:04:41.814Z,10.55
2023-05-04T02:07:09.265Z,10.55
2023-05-04T02:09:36.700Z,10.53
2023-05-04T02:12:04.178Z,10.56
2023-05-04T02:14:31.152Z,10.56
2023-05-04T02:16:58.089Z,10.56
2023-05-04T02:19:25.148Z,10.56
2023-05-04T02:21:52.757Z,10.54
2023-05-04T02:24:22.009Z,10.55
2023-05-04T02:26:49.114Z,10.54
2023-05-04T02:29:16.109Z,10.54
2023-05-04T02:31:43.173Z,10.52
2023-05-04T02:34:10.526Z,10.48
2023-05-04T02:36:47.140Z,10.45
2023-05-04T02:39:14.551Z,10.39
2023-05-04T02:41:41.548Z,10.35
2023-05-04T02:44:08.562Z,10.33
2023-05-04T02:46:35.510Z,10.30
2023-05-04T02:49:02.522Z,10.28
2023-05-04T02:51:29.516Z,10.25
2023-05-04T02:53:56.494Z,10.23
2023-05-04T02:56:24.229Z,10.21
2023-05-04T02:58:51.429Z,10.18
2023-05-04T03:01:18.520Z,10.14
2023-05-04T03:03:45.936Z,10.11
2023-05-04T03:06:12.945Z,10.08
2023-05-04T03:08:40.154Z,10.08
2023-05-04T03:11:07.206Z,10.06
2023-05-04T03:13:34.405Z,10.07
2023-05-04T03:16:02.714Z,10.06
2023-05-04T03:18:29.951Z,10.07
2023-05-04T03:20:57.554Z,10.07
2023-05-04T03:23:24.618Z,10.07
2023-05-04T03:25:51.557Z,10.07
2023-05-04T03:28:19.311Z,10.07
2023-05-04T03:30:46.262Z,10.08
2023-05-04T03:33:14.566Z,10.08
2023-05-04T03:35:41.964Z,10.09
2023-05-04T03:38:09.916Z,10.08
2023-05-04T03:40:37.521Z,10.09
2023-05-04T03:43:05.522Z,10.10
2023-05-04T03:45:32.524Z,10.10
2023-05-04T03:47:59.554Z,10.09
2023-05-04T03:50:28.176Z,10.09
2023-05-04T03:52:55.140Z,10.12
2023-05-04T03:55:24.259Z,10.14
2023-05-04T03:57:51.829Z,10.18
2023-05-04T04:00:19.522Z,10.25
2023-05-04T04:02:54.606Z,10.30
2023-05-04T04:05:21.650Z,10.37
2023-05-04T04:07:50.611Z,10.42
2023-05-04T04:10:17.985Z,10.49
2023-05-04T04:12:44.930Z,10.55
2023-05-04T04:15:12.293Z,10.61
2023-05-04T04:17:39.359Z,10.63
2023-05-04T04:20:07.470Z,10.67
2023-05-04T04:22:35.996Z,10.71
2023-05-04T04:25:03.351Z,10.75
2023-05-04T04:27:30.886Z,10.77
2023-05-04T04:29:57.871Z,10.79
2023-05-04T04:32:25.225Z,10.82
2023-05-04T04:34:52.218Z,10.86
2023-05-04T04:37:19.176Z,10.89
2023-05-04T04:39:46.114Z,10.93
2023-05-04T04:42:13.453Z,10.99
2023-05-04T04:44:40.933Z,11.05
2023-05-04T04:47:08.012Z,11.11
2023-05-04T04:49:34.986Z,11.18
2023-05-04T04:52:02.778Z,11.23
2023-05-04T04:54:29.767Z,11.31
2023-05-04T04:56:57.005Z,11.39
2023-05-04T04:59:24.821Z,11.49
2023-05-04T05:01:51.980Z,11.62
2023-05-04T05:04:19.595Z,11.73
2023-05-04T05:06:47.719Z,11.83
2023-05-04T05:09:14.766Z,11.96
2023-05-04T05:11:41.734Z,12.12
2023-05-04T05:14:08.687Z,12.30
2023-05-04T05:16:35.793Z,12.43
2023-05-04T05:19:03.417Z,12.57
2023-05-04T05:21:30.531Z,12.67
2023-05-04T05:23:57.547Z,12.77
2023-05-04T05:26:24.813Z,12.82
2023-05-04T05:28:51.939Z,12.86
2023-05-04T05:31:19.315Z,12.86
2023-05-04T05:33:46.329Z,12.87
2023-05-04T05:36:14.440Z,12.86
2023-05-04T05:38:41.571Z,12.89
2023-05-04T05:41:09.746Z,12.93
2023-05-04T05:43:38.524Z,12.95
2023-05-04T05:46:07.360Z,13.01
2023-05-04T05:48:34.660Z,13.09
2023-05-04T05:51:01.588Z,13.17
2023-05-04T05:53:28.515Z,13.24
2023-05-04T05:55:55.524Z,13.36
2023-05-04T05:58:22.554Z,13.48
2023-05-04T06:00:49.524Z,13.63
2023-05-04T06:03:16.627Z,13.76
2023-05-04T06:05:43.645Z,13.90
2023-05-04T06:08:10.682Z,14.01
2023-05-04T06:10:37.593Z,14.09
2023-05-04T06:13:04.604Z,14.21
2023-05-04T06:15:31.620Z,14.28
2023-05-04T06:17:58.694Z,14.35
2023-05-04T06:20:25.665Z,14.40
2023-05-04T06:22:52.603Z,14.47
2023-05-04T06:25:19.630Z,14.55
2023-05-04T06:27:47.358Z,14.64
2023-05-04T06:30:15.866Z,14.73
2023-05-04T06:32:42.992Z,14.82
2023-05-04T06:35:10.496Z,14.91
2023-05-04T06:37:37.845Z,15.04
2023-05-04T06:40:05.620Z,15.18
2023-05-04T06:42:33.141Z,15.32
2023-05-04T06:45:00.154Z,15.47
2023-05-04T06:47:27.150Z,15.64
2023-05-04T06:49:54.093Z,15.86
2023-05-04T06:52:21.555Z,16.09
2023-05-04T06:54:48.760Z,16.34
2023-05-04T06:57:15.737Z,16.54
2023-05-04T06:59:42.662Z,16.73
2023-05-04T07:02:09.826Z,16.92
2023-05-04T07:04:37.079Z,17.13
2023-05-04T07:07:04.033Z,17.41
2023-05-04T07:09:31.004Z,17.73
2023-05-04T07:11:57.989Z,18.05
2023-05-04T07:14:24.968Z,18.39
2023-05-04T07:16:52.080Z,18.68
2023-05-04T07:19:19.006Z,18.97
2023-05-04T07:21:47.279Z,19.24
2023-05-04T07:24:14.748Z,19.65
2023-05-04T07:26:41.692Z,20.03
2023-05-04T07:29:09.425Z,20.50
2023-05-04T07:31:36.497Z,20.87
2023-05-04T07:34:03.762Z,21.17
2023-05-04T07:36:30.828Z,21.49
2023-05-04T07:38:57.792Z,21.92
2023-05-04T07:41:24.786Z,22.44
2023-05-04T07:43:51.702Z,23.01
2023-05-04T07:46:18.698Z,23.50
2023-05-04T07:48:45.777Z,23.87
2023-05-04T07:51:14.309Z,24.17
2023-05-04T07:53:42.420Z,24.30
2023-05-04T07:56:12.509Z,24.48
2023-05-04T07:58:39.949Z,24.74
2023-05-04T08:01:06.944Z,25.01
2023-05-04T08:03:33.978Z,25.36
2023-05-04T08:06:01.108Z,25.69
2023-05-04T08:08:28.599Z,26.06
2023-05-04T08:11:01.971Z,26.45
2023-05-04T08:13:35.283Z,26.69
2023-05-04T08:16:02.569Z,26.75
2023-05-04T08:18:29.486Z,26.87
2023-05-04T08:20:56.523Z,27.14
2023-05-04T08:23:23.590Z,27.42
2023-05-04T08:25:50.709Z,27.66
2023-05-04T08:28:18.324Z,27.90
2023-05-04T08:30:45.431Z,27.95
2023-05-04T08:33:12.481Z,27.97
2023-05-04T08:35:39.511Z,28.10
2023-05-04T08:38:07.532Z,28.26
2023-05-04T08:40:34.949Z,28.39
2023-05-04T08:43:03.635Z,28.60
2023-05-04T08:45:31.072Z,28.83
2023-05-04T08:47:58.106Z,28.97
2023-05-04T08:50:25.696Z,29.20
2023-05-04T08:52:53.489Z,29.39
2023-05-04T08:55:20.982Z,29.45
2023-05-04T08:57:50.655Z,29.37
2023-05-04T09:00:20.263Z,29.12
2023-05-04T09:02:49.183Z,28.76
2023-05-04T09:05:17.076Z,28.53
2023-05-04T09:07:44.043Z,28.44
2023-05-04T09:10:11.258Z,28.57
2023-05-04T09:12:38.229Z,28.79
2023-05-04T09:15:18.793Z,28.96
2023-05-04T09:18:04.069Z,29.22
2023-05-04T09:20:31.493Z,29.56
2023-05-04T09:23:02.339Z,29.76
2023-05-04T09:25:29.444Z,29.82
2023-05-04T09:27:57.337Z,30.00
2023-05-04T09:30:24.446Z,30.31
2023-05-04T09:32:52.900Z,30.57
2023-05-04T09:35:33.480Z,30.77
2023-05-04T09:38:01.136Z,30.91
2023-05-04T09:40:40.641Z,31.02
2023-05-04T09:43:08.499Z,31.26
2023-05-04T09:45:46.942Z,31.60
2023-05-04T09:48:28.885Z,32.04
2023-05-04T09:50:58.501Z,32.39
2023-05-04T09:53:27.941Z,32.60
2023-05-04T09:56:10.970Z,33.00
2023-05-04T09:58:38.926Z,33.29
2023-05-04T10:01:06.517Z,33.53
2023-05-04T10:03:34.183Z,33.70
2023-05-04T10:06:05.703Z,33.85
2023-05-04T10:08:33.343Z,34.10
2023-05-04T10:11:00.907Z,34.52
2023-05-04T10:13:28.101Z,34.94
2023-05-04T10:16:27.072Z,35.21
2023-05-04T10:19:14.935Z,35.18
2023-05-04T10:22:29.419Z,34.74
2023-05-04T10:25:34.688Z,34.47
2023-05-04T10:28:25.321Z,34.41
2023-05-04T10:30:59.387Z,34.29
2023-05-04T10:33:37.271Z,34.32
2023-05-04T10:36:04.922Z,34.56
2023-05-04T10:38:41.394Z,34.80
2023-05-04T10:41:20.224Z,34.90
2023-05-04T10:43:53.387Z,34.94
2023-05-04T10:46:24.286Z,35.02
2023-05-04T10:48:51.540Z,35.11
2023-05-04T10:51:26.483Z,35.06
2023-05-04T10:53:57.536Z,35.09
2023-05-04T10:56:27.694Z,35.08
2023-05-04T10:58:55.346Z,34.90
2023-05-04T11:01:22.863Z,34.70
2023-05-04T11:03:51.856Z,34.46
2023-05-04T11:06:24.330Z,34.15
2023-05-04T11:09:02.975Z,33.88
2023-05-04T11:11:30.296Z,33.83
2023-05-04T11:13:57.547Z,33.85
2023-05-04T11:16:26.934Z,33.63
2023-05-04T11:18:54.826Z,33.33
2023-05-04T11:21:26.019Z,32.96
2023-05-04T11:24:00.399Z,32.51
2023-05-04T11:26:28.614Z,32.13
2023-05-04T11:28:55.713Z,31.78
2023-05-04T11:31:22.884Z,31.50
2023-05-04T11:33:54.917Z,31.17
2023-05-04T11:36:22.955Z,30.86
2023-05-04T11:38:50.922Z,30.52
2023-05-04T11:41:18.111Z,30.10
2023-05-04T11:43:46.750Z,29.68
2023-05-04T11:46:16.414Z,29.29
2023-05-04T11:48:43.936Z,28.94
2023-05-04T11:51:11.252Z,28.61
2023-05-04T11:53:39.987Z,28.28
2023-05-04T11:56:10.829Z,28.02
2023-05-04T11:58:38.213Z,27.79
2023-05-04T12:01:05.865Z,27.67
2023-05-04T12:03:52.191Z,27.58
2023-05-04T12:06:34.337Z,27.50
2023-05-04T12:09:06.268Z,27.49
2023-05-04T12:11:35.628Z,27.51
2023-05-04T12:14:17.018Z,27.53
2023-05-04T12:16:56.040Z,27.45
2023-05-04T12:19:23.208Z,27.36
2023-05-04T12:21:53.210Z,27.26
2023-05-04T12:24:25.120Z,27.17
2023-05-04T12:26:52.148Z,27.14
2023-05-04T12:29:19.134Z,27.11
2023-05-04T12:31:46.226Z,27.24
2023-05-04T12:34:13.306Z,27.20
2023-05-04T12:36:40.795Z,27.09
2023-05-04T12:39:07.763Z,27.00
2023-05-04T12:41:34.964Z,26.96
2023-05-04T12:44:02.827Z,26.89
2023-05-04T12:46:30.476Z,26.88
2023-05-04T12:48:57.752Z,26.86
2023-05-04T12:51:24.749Z,26.81
2023-05-04T12:53:51.805Z,26.77
2023-05-04T12:56:18.736Z,26.69
2023-05-04T12:58:45.694Z,26.59
2023-05-04T13:01:12.977Z,26.55
2023-05-04T13:03:40.141Z,26.49
2023-05-04T13:06:07.444Z,26.47
2023-05-04T13:08:34.577Z,26.44
2023-05-04T13:11:04.029Z,26.36
2023-05-04T13:13:31.092Z,26.30
2023-05-04T13:15:58.157Z,26.26
2023-05-04T13:18:27.954Z,26.24
2023-05-04T13:20:56.520Z,26.22
2023-05-04T13:23:24.341Z,26.19
2023-05-04T13:25:52.176Z,26.11
2023-05-04T13:28:19.382Z,26.03
2023-05-04T13:30:46.640Z,25.97
2023-05-04T13:33:28.090Z,25.98
2023-05-04T13:35:58.522Z,25.97
2023-05-04T13:38:25.863Z,25.98
2023-05-04T13:40:52.847Z,25.96
2023-05-04T13:43:21.172Z,25.91
2023-05-04T13:45:48.397Z,25.91
2023-05-04T13:48:15.361Z,25.90
2023-05-04T13:50:42.306Z,25.97
2023-05-04T13:53:11.153Z,26.02
2023-05-04T13:55:38.416Z,26.04
2023-05-04T13:58:05.434Z,26.05
2023-05-04T14:00:32.498Z,26.08
2023-05-04T14:02:59.722Z,26.07
2023-05-04T14:05:26.992Z,26.07
2023-05-04T14:07:53.916Z,26.07
2023-05-04T14:10:21.018Z,26.10
2023-05-04T14:12:48.055Z,26.11
2023-05-04T14:15:16.488Z,26.04
2023-05-04T14:17:43.531Z,25.93
2023-05-04T14:20:11.000Z,25.83
2023-05-04T14:22:41.020Z,25.76
2023-05-04T14:25:08.908Z,25.69
2023-05-04T14:27:36.258Z,25.68
2023-05-04T14:33:00.531Z,25.64
2023-05-04T14:35:27.892Z,25.61
2023-05-04T14:37:54.824Z,25.60
2023-05-04T14:40:21.861Z,25.60
2023-05-04T14:42:48.795Z,25.60
2023-05-04T14:45:16.118Z,25.60
2023-05-04T14:47:43.127Z,25.61
2023-05-04T14:50:10.900Z,25.61
2023-05-04T14:52:38.057Z,25.63
2023-05-04T14:55:08.752Z,25.62
2023-05-04T14:57:36.651Z,25.62
2023-05-04T15:00:09.352Z,25.60
2023-05-04T15:02:38.595Z,25.58
2023-05-04T15:05:06.597Z,25.58
2023-05-04T15:07:33.599Z,25.54
2023-05-04T15:10:00.708Z,25.57
2023-05-04T15:12:27.669Z,25.59
2023-05-04T15:14:54.662Z,25.64
2023-05-04T15:17:21.589Z,25.68
2023-05-04T15:19:48.525Z,25.74
2023-05-04T15:22:15.688Z,25.76
2023-05-04T15:24:43.837Z,25.78
2023-05-04T15:27:10.793Z,25.78
2023-05-04T15:29:37.733Z,25.78
2023-05-04T15:32:05.164Z,25.75
2023-05-04T15:34:32.121Z,25.70
2023-05-04T15:36:59.172Z,25.67
2023-05-04T15:39:26.472Z,25.66
2023-05-04T15:41:53.463Z,25.65
2023-05-04T15:44:24.134Z,25.61
2023-05-04T15:46:51.152Z,25.57
2023-05-04T15:49:19.118Z,25.55
2023-05-04T15:51:46.172Z,25.53
2023-05-04T15:54:13.153Z,25.52
2023-05-04T15:56:40.213Z,25.47
2023-05-04T15:59:07.142Z,25.78
2023-05-04T16:01:34.326Z,25.62
2023-05-04T16:04:01.495Z,25.45
2023-05-04T16:06:29.720Z,25.33
2023-05-04T16:08:56.711Z,25.23
2023-05-04T16:11:23.698Z,25.15
2023-05-04T16:13:50.797Z,25.08
2023-05-04T16:16:17.797Z,25.04
2023-05-04T16:18:44.780Z,24.99
2023-05-04T16:21:14.001Z,24.96
2023-05-04T16:23:41.300Z,24.92
2023-05-04T16:26:08.305Z,24.90
2023-05-04T16:28:35.398Z,24.89
2023-05-04T16:31:05.897Z,24.85
2023-05-04T16:33:33.082Z,24.83
2023-05-04T16:36:00.055Z,24.77
2023-05-04T16:38:28.240Z,24.77
2023-05-04T16:40:55.686Z,24.72
2023-05-04T16:43:22.877Z,24.68
2023-05-04T16:45:50.104Z,24.66
2023-05-04T16:48:17.529Z,24.63
2023-05-04T16:50:44.574Z,24.65
2023-05-04T16:53:11.552Z,24.67
2023-05-04T16:55:38.556Z,24.73
2023-05-04T16:58:05.491Z,24.79
2023-05-04T17:00:32.931Z,24.85
2023-05-04T17:02:59.929Z,24.85
2023-05-04T17:05:27.045Z,24.86
2023-05-04T17:07:54.175Z,24.89
2023-05-04T17:10:21.312Z,24.90
2023-05-04T17:12:48.296Z,24.91
2023-05-04T17:15:15.274Z,24.90
2023-05-04T17:17:42.378Z,24.88
2023-05-04T17:20:15.052Z,24.86
2023-05-04T17:22:45.658Z,24.84
2023-05-04T17:25:13.820Z,24.82
2023-05-04T17:27:41.086Z,24.79
2023-05-04T17:30:08.902Z,24.77
2023-05-04T17:32:37.452Z,24.73
2023-05-04T17:35:15.853Z,24.67
2023-05-04T17:37:47.698Z,24.63
2023-05-04T17:40:14.720Z,24.64
2023-05-04T17:42:41.663Z,24.64
2023-05-04T17:45:09.271Z,24.62
2023-05-04T17:47:36.330Z,24.62
2023-05-04T17:50:04.226Z,24.62
2023-05-04T17:52:31.377Z,24.61
2023-05-04T17:54:58.381Z,24.57
2023-05-04T17:57:25.389Z,24.50
2023-05-04T17:59:52.420Z,24.44
2023-05-04T18:02:19.551Z,24.35
2023-05-04T18:04:46.515Z,24.27
2023-05-04T18:07:13.515Z,24.18
2023-05-04T18:09:40.564Z,24.06
2023-05-04T18:12:09.063Z,23.96
2023-05-04T18:14:36.070Z,23.87
2023-05-04T18:17:03.089Z,23.78
2023-05-04T18:19:31.814Z,23.69
2023-05-04T18:21:58.779Z,23.61
2023-05-04T18:24:25.893Z,23.54
2023-05-04T18:26:55.711Z,23.44
2023-05-04T18:29:23.048Z,23.36
2023-05-04T18:31:50.118Z,23.30
2023-05-04T18:34:17.143Z,23.21
2023-05-04T18:36:44.115Z,23.14
2023-05-04T18:39:11.149Z,23.10
2023-05-04T18:41:38.248Z,23.03
2023-05-04T18:44:15.485Z,22.97
2023-05-04T18:46:42.655Z,22.89
2023-05-04T18:49:09.710Z,22.81
2023-05-04T18:51:36.686Z,22.72
2023-05-04T18:54:03.988Z,22.63
2023-05-04T18:56:31.021Z,22.56
2023-05-04T18:58:57.999Z,22.49
2023-05-04T19:01:25.104Z,22.43
2023-05-04T19:03:52.163Z,22.66
2023-05-04T19:06:19.117Z,22.56
2023-05-04T19:08:46.102Z,22.44
2023-05-04T19:11:13.049Z,22.37
2023-05-04T19:13:40.033Z,22.33
2023-05-04T19:16:12.304Z,22.31
2023-05-04T19:18:39.427Z,22.29
2023-05-04T19:21:06.927Z,22.28
2023-05-04T19:23:34.135Z,22.25
2023-05-04T19:26:01.365Z,22.23
2023-05-04T19:28:28.309Z,22.19
2023-05-04T19:30:55.796Z,22.17
2023-05-04T19:33:26.375Z,22.14
2023-05-04T19:36:01.274Z,22.12
2023-05-04T19:38:28.595Z,22.10
2023-05-04T19:40:55.758Z,22.09
2023-05-04T19:43:22.819Z,22.08
2023-05-04T19:45:51.339Z,22.08
2023-05-04T19:48:18.393Z,22.07
2023-05-04T19:50:45.418Z,22.08
2023-05-04T19:53:12.581Z,22.06
2023-05-04T19:55:39.982Z,22.04
2023-05-04T19:58:07.135Z,22.03
2023-05-04T20:00:34.153Z,22.01
2023-05-04T20:03:01.258Z,21.97
2023-05-04T20:05:28.430Z,21.93
2023-05-04T20:07:55.345Z,21.88
2023-05-04T20:10:23.602Z,21.80
2023-05-04T20:12:50.573Z,21.75
2023-05-04T20:15:17.682Z,21.68
2023-05-04T20:17:44.726Z,21.64
2023-05-04T20:20:12.383Z,21.62
2023-05-04T20:22:39.381Z,21.57
2023-05-04T20:25:06.829Z,21.54
2023-05-04T20:27:33.778Z,21.51
2023-05-04T20:30:01.035Z,21.47
2023-05-04T20:32:30.343Z,21.48
2023-05-04T20:34:57.290Z,21.46
2023-05-04T20:37:24.314Z,21.43
2023-05-04T20:39:52.395Z,21.42
2023-05-04T20:42:19.481Z,21.37
2023-05-04T20:44:46.484Z,21.35
2023-05-04T20:47:13.591Z,21.33
2023-05-04T20:49:40.535Z,21.29
2023-05-04T20:52:07.548Z,21.23
2023-05-04T20:54:34.503Z,21.19
2023-05-04T20:57:01.619Z,21.15
2023-05-04T20:59:28.698Z,21.13
2023-05-04T21:01:56.205Z,21.09
2023-05-04T21:04:23.176Z,21.06
2023-05-04T21:06:50.247Z,21.02
2023-05-04T21:09:17.264Z,20.98
2023-05-04T21:11:44.265Z,20.94
2023-05-04T21:14:13.606Z,20.89
2023-05-04T21:16:40.671Z,20.86
2023-05-04T21:19:08.287Z,20.80
2023-05-04T21:21:40.457Z,20.79
2023-05-04T21:24:13.035Z,20.76
2023-05-04T21:26:41.209Z,20.76
2023-05-04T21:29:14.247Z,20.77
2023-05-04T21:31:41.862Z,20.74
2023-05-04T21:34:09.311Z,20.74
2023-05-04T21:36:36.277Z,20.72
2023-05-04T21:39:03.377Z,20.70
2023-05-04T21:41:30.533Z,20.71
2023-05-04T21:43:57.670Z,20.72
2023-05-04T21:46:24.599Z,20.72
2023-05-04T21:48:51.832Z,20.73
2023-05-04T21:51:20.796Z,20.74
2023-05-04T21:53:48.267Z,20.76
2023-05-04T21:56:15.298Z,20.76
2023-05-04T21:58:43.009Z,20.75
2023-05-04T22:01:15.462Z,20.74
2023-05-04T22:03:43.201Z,20.71
2023-05-04T22:06:10.609Z,20.69
2023-05-04T22:08:37.972Z,20.68
2023-05-04T22:11:05.048Z,20.68
2023-05-04T22:13:32.049Z,20.69
2023-05-04T22:15:59.347Z,20.68
2023-05-04T22:18:26.354Z,20.69
2023-05-04T22:20:53.345Z,20.71
2023-05-04T22:23:20.328Z,20.72
2023-05-04T22:25:47.405Z,20.74
2023-05-04T22:28:14.396Z,20.76
2023-05-04T22:30:41.445Z,20.76
2023-05-04T22:33:08.588Z,20.79
2023-05-04T22:35:35.606Z,20.82
2023-05-04T22:38:02.697Z,20.83
2023-05-04T22:40:29.769Z,20.84
2023-05-04T22:42:56.758Z,20.86
2023-05-04T22:45:23.688Z,20.88
2023-05-04T22:47:51.219Z,20.91
2023-05-04T22:50:18.155Z,20.91
2023-05-04T22:52:46.249Z,20.90
2023-05-04T22:55:13.174Z,20.90
2023-05-04T22:57:40.239Z,20.87
2023-05-04T23:00:08.525Z,20.87
2023-05-04T23:02:36.202Z,20.87
2023-05-04T23:05:03.963Z,20.87
2023-05-04T23:07:31.034Z,20.87
2023-05-04T23:09:58.163Z,20.88
2023-05-04T23:12:26.764Z,20.90
2023-05-04T23:14:54.722Z,20.88
2023-05-04T23:17:22.070Z,20.85
2023-05-04T23:19:49.131Z,20.81
2023-05-04T23:22:16.418Z,20.80
2023-05-04T23:24:43.770Z,20.78
2023-05-04T23:27:11.881Z,20.77
2023-05-04T23:29:38.993Z,20.78
2023-05-04T23:32:06.378Z,20.79
2023-05-04T23:34:33.460Z,20.78
2023-05-04T23:37:00.593Z,20.80
2023-05-04T23:39:27.684Z,20.81
2023-05-04T23:41:54.763Z,20.79
2023-05-04T23:44:21.889Z,20.79
2023-05-04T23:46:48.858Z,20.78
2023-05-04T23:49:16.460Z,20.78
2023-05-04T23:51:43.541Z,20.77
2023-05-04T23:54:10.953Z,20.75
2023-05-04T23:56:38.188Z,20.74
2023-05-04T23:59:05.526Z,20.70
